Benchland, Montana
Current Conditions -  °F | °C
As of 5:54 PM on Wednesday 22 Oct 2014 (Local Time) from KLWT Reporting Station
Clear Clear  
Wind Chill: 54°   Ceiling: Unl
Heat Index: 54°   Visibility: 10mi
Dew Point: 30°   Wind: 18mph
Humidity: 40%   Direction: 250°WSW
Pressure: 29.91"   Gusts: NA
Location:  47.1096°N, 109.884°W
Report Text: KLWT 222354Z AUTO 25016KT 10SM CLR 12/M01 A2991 RMK AO2 SLP126 T01221011 10156 20122 58003
Loading
Personal Weather Stations






























Interactive Weather Map
Tropical Storm Tracking
New forecast layout! Learn more

10-Day Weather Forecast

Advertisements
Track Severe Weather on mobile